createdAt,value
2018-09-24T00:00:40.343Z,11.70
2018-09-24T00:03:07.511Z,11.70
2018-09-24T00:05:34.655Z,11.60
2018-09-24T00:08:01.836Z,11.50
2018-09-24T00:10:28.988Z,11.50
2018-09-24T00:12:56.155Z,11.60
2018-09-24T00:15:23.326Z,11.50
2018-09-24T00:17:50.483Z,11.60
2018-09-24T00:20:17.648Z,11.70
2018-09-24T00:22:44.812Z,11.80
2018-09-24T00:25:11.988Z,11.80
2018-09-24T00:27:39.158Z,11.70
2018-09-24T00:30:06.348Z,11.60
2018-09-24T00:32:33.531Z,11.70
2018-09-24T00:35:00.687Z,11.60
2018-09-24T00:37:27.873Z,11.60
2018-09-24T00:39:55.090Z,11.50
2018-09-24T00:42:22.207Z,11.50
2018-09-24T00:44:49.368Z,11.40
2018-09-24T00:47:16.614Z,11.40
2018-09-24T00:49:43.734Z,11.50
2018-09-24T00:52:10.903Z,11.60
2018-09-24T00:54:38.072Z,11.60
2018-09-24T00:57:05.276Z,11.60
2018-09-24T00:59:32.439Z,11.50
2018-09-24T01:01:59.607Z,11.40
2018-09-24T01:04:26.760Z,11.40
2018-09-24T01:06:53.932Z,11.40
2018-09-24T01:09:21.095Z,11.30
2018-09-24T01:11:48.288Z,11.30
2018-09-24T01:14:15.448Z,11.20
2018-09-24T01:16:42.635Z,11.10
2018-09-24T01:19:16.419Z,11.10
2018-09-24T01:21:43.593Z,11.10
2018-09-24T01:24:10.767Z,10.90
2018-09-24T01:26:37.944Z,10.80
2018-09-24T01:29:05.140Z,10.70
2018-09-24T01:31:32.295Z,10.60
2018-09-24T01:33:59.476Z,10.60
2018-09-24T01:36:26.643Z,10.50
2018-09-24T01:38:53.799Z,10.50
2018-09-24T01:41:20.973Z,10.50
2018-09-24T01:43:48.161Z,10.50
2018-09-24T01:46:15.343Z,10.40
2018-09-24T01:48:43.196Z,10.40
2018-09-24T01:51:10.356Z,10.30
2018-09-24T01:53:37.510Z,10.30
2018-09-24T01:56:04.903Z,10.30
2018-09-24T01:58:35.840Z,10.20
2018-09-24T02:01:03.276Z,10.20
2018-09-24T02:03:32.103Z,10.20
2018-09-24T02:05:59.727Z,10.20
2018-09-24T02:08:26.911Z,10.10
2018-09-24T02:10:54.076Z,10.10
2018-09-24T02:13:21.248Z,10.10
2018-09-24T02:15:48.539Z,10.10
2018-09-24T02:18:15.698Z,10.10
2018-09-24T02:20:47.166Z,10.10
2018-09-24T02:23:14.631Z,10.10
2018-09-24T02:25:41.863Z,10.00
2018-09-24T02:28:09.022Z,10.10
2018-09-24T02:30:36.176Z,10.00
2018-09-24T02:33:07.856Z,10.00
2018-09-24T02:35:35.259Z,9.90
2018-09-24T02:38:02.453Z,9.90
2018-09-24T02:40:29.626Z,10.00
2018-09-24T02:42:56.815Z,10.10
2018-09-24T02:45:23.975Z,10.10
2018-09-24T02:47:51.151Z,10.10
2018-09-24T02:50:18.299Z,10.10
2018-09-24T02:52:45.471Z,10.10
2018-09-24T02:55:17.728Z,10.10
2018-09-24T02:57:45.078Z,10.10
2018-09-24T03:00:15.700Z,10.00
2018-09-24T03:02:43.031Z,10.10
2018-09-24T03:05:10.201Z,10.10
2018-09-24T03:07:37.384Z,10.00
2018-09-24T03:10:04.609Z,10.00
2018-09-24T03:12:31.764Z,9.90
2018-09-24T03:14:58.951Z,9.80
2018-09-24T03:17:26.126Z,9.80
2018-09-24T03:19:53.308Z,9.90
2018-09-24T03:22:22.244Z,9.80
2018-09-24T03:24:49.720Z,9.80
2018-09-24T03:27:16.887Z,9.80
2018-09-24T03:29:44.056Z,9.70
2018-09-24T03:32:11.243Z,9.70
2018-09-24T03:34:40.728Z,9.70
2018-09-24T03:37:08.238Z,9.60
2018-09-24T03:39:35.723Z,9.60
2018-09-24T03:42:02.978Z,9.60
2018-09-24T03:44:30.101Z,9.60
2018-09-24T03:46:57.260Z,9.50
2018-09-24T03:49:24.440Z,9.50
2018-09-24T03:51:51.616Z,9.40
2018-09-24T03:54:18.920Z,9.30
2018-09-24T03:56:46.071Z,9.30
2018-09-24T03:59:13.239Z,9.20
2018-09-24T04:01:40.408Z,9.00
2018-09-24T04:04:13.290Z,9.00
2018-09-24T04:06:46.288Z,9.00
2018-09-24T04:09:19.205Z,9.10
2018-09-24T04:11:52.200Z,9.20
2018-09-24T04:14:25.071Z,9.10
2018-09-24T04:16:57.996Z,9.10
2018-09-24T04:19:31.021Z,9.00
2018-09-24T04:22:03.804Z,9.00
2018-09-24T04:24:36.868Z,8.90
2018-09-24T04:27:10.032Z,8.90
2018-09-24T04:29:42.873Z,8.90
2018-09-24T04:32:15.724Z,8.80
2018-09-24T04:34:48.680Z,8.90
2018-09-24T04:37:21.776Z,8.90
2018-09-24T04:39:54.584Z,8.90
2018-09-24T04:42:27.388Z,8.90
2018-09-24T04:45:00.268Z,8.80
2018-09-24T04:47:33.320Z,8.80
2018-09-24T04:50:06.300Z,8.80
2018-09-24T04:52:39.224Z,8.80
2018-09-24T04:55:12.200Z,8.80
2018-09-24T04:57:45.104Z,8.80
2018-09-24T05:00:18.252Z,8.80
2018-09-24T05:02:51.276Z,8.70
2018-09-24T05:05:24.327Z,8.70
2018-09-24T05:07:57.111Z,8.80
2018-09-24T05:10:30.067Z,8.70
2018-09-24T05:13:03.047Z,8.70
2018-09-24T05:15:36.039Z,8.70
2018-09-24T05:18:08.976Z,8.70
2018-09-24T05:20:41.995Z,8.90
2018-09-24T05:23:14.951Z,8.80
2018-09-24T05:25:47.827Z,8.90
2018-09-24T05:28:20.892Z,8.90
2018-09-24T05:30:54.020Z,8.80
2018-09-24T05:33:27.095Z,8.90
2018-09-24T05:36:00.067Z,8.90
2018-09-24T05:38:33.046Z,9.00
2018-09-24T05:41:05.942Z,9.00
2018-09-24T05:43:38.860Z,9.00
2018-09-24T05:46:13.051Z,8.90
2018-09-24T05:48:45.984Z,8.90
2018-09-24T05:51:19.040Z,8.90
2018-09-24T05:53:52.069Z,8.90
2018-09-24T05:56:25.099Z,8.90
2018-09-24T05:58:57.995Z,8.90
2018-09-24T06:01:31.080Z,9.00
2018-09-24T06:04:04.165Z,9.10
2018-09-24T06:06:37.011Z,9.00
2018-09-24T06:09:12.719Z,9.00
2018-09-24T06:11:47.216Z,9.00
2018-09-24T06:14:19.972Z,9.10
2018-09-24T06:16:52.942Z,9.10
2018-09-24T06:19:25.881Z,9.20
2018-09-24T06:21:58.956Z,9.10
2018-09-24T06:24:32.028Z,9.20
2018-09-24T06:27:04.859Z,9.30
2018-09-24T06:29:37.963Z,9.30
2018-09-24T06:32:11.204Z,9.30
2018-09-24T06:34:44.404Z,9.40
2018-09-24T06:37:17.470Z,9.40
2018-09-24T06:39:50.501Z,9.50
2018-09-24T06:42:23.413Z,9.50
2018-09-24T06:44:57.397Z,9.60
2018-09-24T06:47:30.334Z,9.60
2018-09-24T06:50:03.340Z,9.70
2018-09-24T06:52:36.317Z,9.80
2018-09-24T06:55:09.192Z,9.90
2018-09-24T06:57:42.071Z,9.90
2018-09-24T07:00:14.977Z,10.00
2018-09-24T07:02:47.991Z,10.00
2018-09-24T07:05:21.077Z,10.00
2018-09-24T07:07:54.289Z,10.10
2018-09-24T07:10:27.340Z,10.30
2018-09-24T07:13:00.396Z,10.30
2018-09-24T07:15:33.296Z,10.40
2018-09-24T07:18:06.052Z,10.50
2018-09-24T07:20:38.951Z,10.60
2018-09-24T07:23:12.004Z,10.70
2018-09-24T07:25:44.957Z,10.70
2018-09-24T07:28:17.821Z,10.90
2018-09-24T07:30:50.688Z,10.90
2018-09-24T07:33:23.949Z,11.00
2018-09-24T07:35:56.825Z,11.00
2018-09-24T07:38:36.495Z,11.10
2018-09-24T07:41:09.370Z,11.20
2018-09-24T07:43:42.332Z,11.10
2018-09-24T07:46:15.181Z,10.90
2018-09-24T07:48:47.956Z,10.90
2018-09-24T07:51:20.991Z,11.00
2018-09-24T07:53:53.993Z,11.20
2018-09-24T07:56:27.037Z,11.20
2018-09-24T07:58:59.928Z,11.30
2018-09-24T08:01:34.415Z,11.40
2018-09-24T08:04:07.456Z,11.40
2018-09-24T08:06:40.460Z,11.40
2018-09-24T08:09:13.486Z,11.40
2018-09-24T08:11:46.544Z,11.50
2018-09-24T08:14:19.540Z,11.50
2018-09-24T08:16:52.634Z,11.50
2018-09-24T08:19:25.490Z,11.60
2018-09-24T08:21:58.427Z,11.60
2018-09-24T08:24:31.223Z,11.70
2018-09-24T08:27:11.098Z,11.70
2018-09-24T08:29:44.083Z,11.80
2018-09-24T08:32:17.163Z,11.80
2018-09-24T08:34:50.187Z,11.70
2018-09-24T08:37:22.991Z,11.90
2018-09-24T08:39:55.948Z,11.90
2018-09-24T08:42:29.004Z,12.00
2018-09-24T08:45:01.848Z,12.00
2018-09-24T08:47:34.651Z,12.00
2018-09-24T08:50:07.503Z,12.10
2018-09-24T08:52:40.439Z,12.10
2018-09-24T08:55:13.435Z,12.10
2018-09-24T08:57:46.228Z,12.30
2018-09-24T09:00:19.316Z,12.30
2018-09-24T09:02:52.132Z,12.40
2018-09-24T09:05:25.080Z,12.40
2018-09-24T09:07:58.131Z,12.40
2018-09-24T09:10:31.112Z,12.40
2018-09-24T09:13:04.042Z,12.60
2018-09-24T09:15:36.916Z,12.50
2018-09-24T09:18:09.870Z,12.50
2018-09-24T09:20:42.747Z,12.50
2018-09-24T09:23:15.651Z,12.60
2018-09-24T09:25:48.437Z,12.80
2018-09-24T09:28:21.411Z,12.90
2018-09-24T09:30:54.431Z,12.90
2018-09-24T09:33:27.439Z,12.70
2018-09-24T09:36:00.391Z,12.60
2018-09-24T09:38:33.370Z,12.60
2018-09-24T09:41:06.181Z,12.80
2018-09-24T09:43:45.604Z,12.90
2018-09-24T09:46:18.607Z,13.00
2018-09-24T09:48:51.588Z,13.20
2018-09-24T09:51:24.407Z,13.40
2018-09-24T09:53:57.264Z,13.60
2018-09-24T09:56:30.244Z,13.70
2018-09-24T09:59:03.288Z,13.90
2018-09-24T10:01:36.077Z,14.00
2018-09-24T10:04:09.008Z,14.20
2018-09-24T10:06:41.958Z,14.30
2018-09-24T10:09:14.936Z,14.30
2018-09-24T10:11:47.992Z,14.20
2018-09-24T10:14:20.797Z,14.00
2018-09-24T10:16:53.695Z,14.10
2018-09-24T10:19:26.643Z,14.40
2018-09-24T10:21:59.579Z,14.50
2018-09-24T10:24:32.333Z,14.50
2018-09-24T10:27:05.261Z,14.50
2018-09-24T10:29:38.268Z,14.60
2018-09-24T10:32:11.268Z,14.50
2018-09-24T10:34:44.294Z,14.50
2018-09-24T10:37:17.304Z,14.60
2018-09-24T10:39:50.396Z,14.50
2018-09-24T10:42:23.432Z,14.40
2018-09-24T10:44:56.480Z,14.40
2018-09-24T10:47:29.412Z,14.40
2018-09-24T10:50:02.191Z,14.50
2018-09-24T10:52:35.044Z,14.60
2018-09-24T10:55:08.124Z,14.60
2018-09-24T10:57:41.127Z,14.50
2018-09-24T11:00:14.180Z,14.60
2018-09-24T11:02:47.159Z,14.70
2018-09-24T11:05:20.084Z,14.70
2018-09-24T11:07:52.863Z,14.80
2018-09-24T11:10:25.735Z,14.90
2018-09-24T11:12:58.519Z,15.00
2018-09-24T11:15:31.403Z,15.20
2018-09-24T11:18:04.326Z,15.30
2018-09-24T11:20:37.285Z,15.40
2018-09-24T11:23:10.262Z,15.40
2018-09-24T11:25:43.103Z,15.40
2018-09-24T11:28:16.163Z,15.40
2018-09-24T11:30:49.219Z,15.30
2018-09-24T11:33:22.231Z,15.20
2018-09-24T11:35:55.224Z,15.30
2018-09-24T11:38:28.252Z,15.50
2018-09-24T11:41:01.107Z,15.50
2018-09-24T11:43:34.080Z,15.60
2018-09-24T11:46:07.043Z,15.80
2018-09-24T11:48:39.896Z,16.00
2018-09-24T11:51:12.776Z,16.00
2018-09-24T11:53:45.844Z,15.90
2018-09-24T11:56:18.852Z,15.80
2018-09-24T11:58:51.755Z,15.70
2018-09-24T12:01:24.607Z,15.60
2018-09-24T12:03:57.518Z,15.30
2018-09-24T12:06:30.371Z,15.10
2018-09-24T12:09:03.315Z,14.90
2018-09-24T12:11:36.320Z,14.60
2018-09-24T12:14:09.267Z,14.70
2018-09-24T12:16:42.355Z,14.90
2018-09-24T12:19:15.384Z,15.10
2018-09-24T12:21:48.212Z,15.40
2018-09-24T12:24:21.113Z,15.90
2018-09-24T12:26:54.169Z,16.20
2018-09-24T12:29:27.144Z,16.70
2018-09-24T12:32:00.218Z,16.80
2018-09-24T12:34:33.300Z,16.80
2018-09-24T12:37:06.327Z,16.90
2018-09-24T12:39:39.136Z,17.20
2018-09-24T12:42:12.261Z,17.30
2018-09-24T12:44:45.188Z,17.20
2018-09-24T12:47:18.220Z,16.90
2018-09-24T12:49:51.072Z,16.60
2018-09-24T12:52:24.103Z,16.40
2018-09-24T12:54:57.191Z,16.10
2018-09-24T12:57:30.095Z,16.00
2018-09-24T13:00:02.907Z,16.10
2018-09-24T13:02:35.819Z,16.30
2018-09-24T13:05:08.796Z,16.40
2018-09-24T13:07:41.691Z,16.30
2018-09-24T13:10:14.723Z,16.10
2018-09-24T13:12:47.679Z,15.90
2018-09-24T13:15:20.732Z,15.70
2018-09-24T13:17:53.637Z,15.60
2018-09-24T13:20:26.465Z,15.60
2018-09-24T13:22:59.316Z,15.60
2018-09-24T13:25:32.268Z,15.70
2018-09-24T13:28:05.152Z,15.70
2018-09-24T13:30:38.200Z,15.70
2018-09-24T13:33:11.180Z,15.90
2018-09-24T13:35:44.132Z,15.90
2018-09-24T13:38:16.992Z,16.00
2018-09-24T13:40:50.040Z,16.20
2018-09-24T13:43:23.027Z,16.20
2018-09-24T13:45:56.083Z,16.10
2018-09-24T13:48:29.076Z,16.10
2018-09-24T13:51:02.104Z,16.10
2018-09-24T13:53:35.085Z,16.40
2018-09-24T13:56:07.899Z,16.80
2018-09-24T13:58:40.788Z,17.30
2018-09-24T14:01:13.691Z,17.60
2018-09-24T14:03:46.719Z,17.80
2018-09-24T14:06:19.646Z,17.60
2018-09-24T14:08:52.581Z,17.40
2018-09-24T14:11:25.574Z,17.50
2018-09-24T14:13:58.507Z,17.50
2018-09-24T14:16:31.313Z,17.40
2018-09-24T14:19:04.359Z,17.40
2018-09-24T14:21:37.419Z,17.40
2018-09-24T14:24:10.396Z,17.50
2018-09-24T14:26:43.277Z,17.40
2018-09-24T14:29:16.051Z,17.40
2018-09-24T14:31:49.036Z,17.40
2018-09-24T14:34:21.912Z,17.40
2018-09-24T14:36:54.917Z,17.30
2018-09-24T14:39:27.748Z,17.30
2018-09-24T14:42:00.842Z,17.30
2018-09-24T14:44:33.900Z,17.30
2018-09-24T14:47:07.131Z,17.30
2018-09-24T14:49:40.132Z,17.30
2018-09-24T14:52:13.032Z,17.30
2018-09-24T14:54:46.039Z,17.30
2018-09-24T14:57:18.840Z,17.40
2018-09-24T14:59:51.674Z,17.40
2018-09-24T15:02:24.675Z,17.40
2018-09-24T15:04:57.500Z,17.30
2018-09-24T15:07:30.536Z,17.20
2018-09-24T15:10:03.503Z,17.20
2018-09-24T15:12:36.325Z,17.20
2018-09-24T15:15:09.195Z,17.10
2018-09-24T15:17:42.248Z,17.00
2018-09-24T15:20:15.248Z,16.90
2018-09-24T15:22:48.301Z,16.80
2018-09-24T15:25:21.285Z,16.70
2018-09-24T15:27:54.207Z,16.60
2018-09-24T15:30:27.264Z,16.50
2018-09-24T15:33:00.371Z,16.50
2018-09-24T15:35:33.396Z,16.40
2018-09-24T15:38:06.424Z,16.30
2018-09-24T15:40:39.581Z,16.20
2018-09-24T15:43:12.380Z,16.30
2018-09-24T15:45:45.374Z,16.40
2018-09-24T15:48:18.208Z,16.20
2018-09-24T15:50:51.089Z,16.00
2018-09-24T15:53:24.143Z,15.90
2018-09-24T15:56:03.772Z,15.80
2018-09-24T15:58:36.776Z,15.70
2018-09-24T16:01:09.751Z,15.60
2018-09-24T16:03:42.753Z,15.50
2018-09-24T16:06:15.784Z,15.50
2018-09-24T16:08:48.836Z,15.50
2018-09-24T16:11:21.788Z,15.50
2018-09-24T16:13:54.615Z,15.50
2018-09-24T16:16:27.499Z,15.50
2018-09-24T16:19:00.323Z,15.40
2018-09-24T16:21:33.215Z,15.40
2018-09-24T16:24:06.228Z,15.30
2018-09-24T16:26:38.983Z,15.20
2018-09-24T16:29:11.915Z,15.20
2018-09-24T16:31:44.820Z,15.10
2018-09-24T16:34:17.772Z,15.00
2018-09-24T16:36:50.744Z,15.00
2018-09-24T16:39:23.667Z,15.00
2018-09-24T16:41:56.631Z,14.90
2018-09-24T16:44:29.615Z,14.80
2018-09-24T16:47:02.571Z,14.70
2018-09-24T16:49:35.463Z,14.70
2018-09-24T16:52:08.463Z,14.60
2018-09-24T16:54:41.398Z,14.60
2018-09-24T16:57:14.451Z,14.50
2018-09-24T16:59:47.436Z,14.50
2018-09-24T17:02:20.379Z,14.40
2018-09-24T17:04:53.412Z,14.30
2018-09-24T17:07:26.492Z,14.20
2018-09-24T17:09:59.319Z,14.30
2018-09-24T17:12:32.251Z,14.20
2018-09-24T17:15:05.279Z,14.20
2018-09-24T17:17:38.128Z,14.20
2018-09-24T17:20:11.247Z,14.20
2018-09-24T17:22:44.237Z,14.20
2018-09-24T17:25:17.155Z,14.20
2018-09-24T17:27:50.056Z,14.10
2018-09-24T17:30:23.013Z,14.10
2018-09-24T17:32:56.068Z,14.00
2018-09-24T17:35:28.938Z,13.80
2018-09-24T17:38:01.948Z,13.80
2018-09-24T17:40:34.991Z,13.90
2018-09-24T17:43:08.643Z,13.90
2018-09-24T17:45:41.451Z,13.70
2018-09-24T17:48:14.436Z,13.60
2018-09-24T17:50:47.487Z,13.50
2018-09-24T17:53:20.374Z,13.60
2018-09-24T17:55:53.475Z,13.50
2018-09-24T18:03:28.161Z,13.50
2018-09-24T18:06:02.081Z,13.60
2018-09-24T18:08:35.785Z,13.40
2018-09-24T18:11:09.997Z,13.20
2018-09-24T18:13:43.207Z,13.20
2018-09-24T18:16:16.733Z,13.20
2018-09-24T18:18:49.692Z,13.20
2018-09-24T18:21:22.731Z,13.20
2018-09-24T18:23:55.668Z,13.20
2018-09-24T18:26:28.844Z,13.20
2018-09-24T18:29:01.734Z,13.20
2018-09-24T18:31:34.845Z,13.20
2018-09-24T18:34:08.508Z,13.10
2018-09-24T18:36:42.469Z,13.00
2018-09-24T18:39:15.460Z,13.10
2018-09-24T18:41:48.428Z,13.00
2018-09-24T18:44:21.836Z,13.00
2018-09-24T18:46:54.852Z,13.00
2018-09-24T18:49:27.763Z,12.90
2018-09-24T18:52:01.564Z,12.80
2018-09-24T18:54:34.887Z,12.90
2018-09-24T18:57:08.489Z,12.80
2018-09-24T18:59:42.115Z,12.70
2018-09-24T19:02:15.774Z,12.70
2018-09-24T19:04:48.792Z,12.70
2018-09-24T19:07:22.383Z,12.50
2018-09-24T19:09:55.302Z,12.50
2018-09-24T19:12:29.356Z,12.40
2018-09-24T19:15:02.338Z,12.40
2018-09-24T19:17:35.379Z,12.40
2018-09-24T19:20:08.247Z,12.30
2018-09-24T19:22:42.308Z,12.30
2018-09-24T19:25:15.207Z,12.20
2018-09-24T19:27:48.268Z,12.30
2018-09-24T19:30:22.303Z,12.30
2018-09-24T19:32:55.325Z,12.20
2018-09-24T19:35:28.319Z,12.20
2018-09-24T19:38:01.188Z,12.20
2018-09-24T19:40:34.048Z,12.10
2018-09-24T19:43:07.158Z,12.10
2018-09-24T19:45:40.938Z,12.10
2018-09-24T19:48:14.458Z,12.10
2018-09-24T19:50:48.111Z,12.10
2018-09-24T19:53:21.957Z,12.20
2018-09-24T19:55:54.935Z,12.10
2018-09-24T19:58:27.939Z,11.90
2018-09-24T20:01:01.044Z,11.90
2018-09-24T20:03:34.080Z,11.90
2018-09-24T20:06:07.040Z,11.90
2018-09-24T20:08:40.031Z,11.90
2018-09-24T20:11:13.105Z,11.80
2018-09-24T20:13:46.035Z,11.80
2018-09-24T20:16:19.035Z,11.70
2018-09-24T20:18:52.100Z,11.70
2018-09-24T20:21:24.846Z,11.60
2018-09-24T20:23:57.827Z,11.60
2018-09-24T20:26:30.871Z,11.70
2018-09-24T20:29:04.119Z,11.70
2018-09-24T20:31:37.264Z,11.60
2018-09-24T20:34:10.491Z,11.60
2018-09-24T20:36:43.965Z,11.50
2018-09-24T20:39:16.920Z,11.60
2018-09-24T20:41:49.883Z,11.60
2018-09-24T20:44:22.912Z,11.50
2018-09-24T20:46:55.915Z,11.50
2018-09-24T20:49:29.571Z,11.50
2018-09-24T20:52:02.533Z,11.40
2018-09-24T20:54:35.340Z,11.40
2018-09-24T20:57:08.341Z,11.50
2018-09-24T20:59:41.471Z,11.50
2018-09-24T21:02:14.505Z,11.50
2018-09-24T21:04:47.511Z,11.40
2018-09-24T21:07:20.516Z,11.30
2018-09-24T21:09:53.616Z,11.30
2018-09-24T21:12:26.500Z,11.30
2018-09-24T21:14:59.455Z,11.30
2018-09-24T21:17:32.559Z,11.40
2018-09-24T21:20:05.628Z,11.40
2018-09-24T21:22:38.540Z,11.30
2018-09-24T21:25:11.589Z,11.30
2018-09-24T21:27:44.443Z,11.10
2018-09-24T21:30:17.240Z,11.00
2018-09-24T21:32:50.095Z,11.10
2018-09-24T21:35:23.004Z,11.00
2018-09-24T21:37:55.870Z,10.90
2018-09-24T21:40:28.922Z,10.90
2018-09-24T21:43:01.912Z,10.90
2018-09-24T21:45:34.736Z,10.90
2018-09-24T21:48:07.663Z,10.90
2018-09-24T21:50:40.414Z,10.80
2018-09-24T21:53:13.311Z,10.90
2018-09-24T21:55:46.431Z,10.90
2018-09-24T21:58:19.504Z,10.90
2018-09-24T22:00:52.599Z,11.00
2018-09-24T22:03:32.312Z,10.90
2018-09-24T22:06:05.264Z,10.90
2018-09-24T22:08:38.316Z,10.90
2018-09-24T22:11:11.567Z,10.70
2018-09-24T22:13:44.472Z,10.70
2018-09-24T22:16:18.199Z,10.70
2018-09-24T22:18:51.082Z,10.70
2018-09-24T22:21:24.085Z,10.70
2018-09-24T22:23:56.903Z,10.70
2018-09-24T22:26:29.755Z,10.70
2018-09-24T22:29:02.616Z,10.60
2018-09-24T22:31:35.520Z,10.50
2018-09-24T22:34:08.571Z,10.50
2018-09-24T22:36:41.452Z,10.50
2018-09-24T22:39:14.270Z,10.40
2018-09-24T22:41:54.227Z,10.50
2018-09-24T22:44:27.236Z,10.50
2018-09-24T22:47:00.255Z,10.50
2018-09-24T22:49:33.071Z,10.40
2018-09-24T22:52:06.103Z,10.40
2018-09-24T22:54:38.924Z,10.50
2018-09-24T22:57:12.258Z,10.50
2018-09-24T22:59:45.198Z,10.50
2018-09-24T23:02:18.184Z,10.60
2018-09-24T23:04:51.112Z,10.60
2018-09-24T23:07:24.111Z,10.60
2018-09-24T23:09:57.128Z,10.70
2018-09-24T23:12:30.168Z,10.70
2018-09-24T23:22:14.352Z,10.80
2018-09-24T23:24:47.164Z,10.50
2018-09-24T23:27:19.999Z,10.40
2018-09-24T23:29:53.020Z,10.40
2018-09-24T23:32:25.964Z,10.40
2018-09-24T23:34:58.962Z,10.70
2018-09-24T23:37:31.858Z,10.50
2018-09-24T23:40:04.843Z,10.50
2018-09-24T23:42:37.856Z,10.40
2018-09-24T23:45:10.843Z,10.30
2018-09-24T23:47:43.856Z,10.20
2018-09-24T23:50:16.677Z,10.30
2018-09-24T23:52:49.676Z,10.20
2018-09-24T23:55:22.668Z,10.10
2018-09-24T23:57:55.675Z,10.10
